createdAt,value
2018-06-05T00:00:53.373Z,36.50
2018-06-05T00:01:53.376Z,37.30
2018-06-05T00:02:53.386Z,33.80
2018-06-05T00:03:53.393Z,33.90
2018-06-05T00:04:53.405Z,37.60
2018-06-05T00:05:53.462Z,35.30
2018-06-05T00:06:53.656Z,35.70
2018-06-05T00:07:55.524Z,36.10
2018-06-05T00:10:29.808Z,42.00
2018-06-05T00:11:30.035Z,40.50
2018-06-05T00:12:29.877Z,35.00
2018-06-05T00:13:29.767Z,39.70
2018-06-05T00:14:34.555Z,37.10
2018-06-05T00:15:29.805Z,36.90
2018-06-05T00:16:29.799Z,38.50
2018-06-05T00:17:29.797Z,36.70
2018-06-05T00:18:29.824Z,38.20
2018-06-05T00:19:29.859Z,38.80
2018-06-05T00:24:19.799Z,46.00
2018-06-05T00:25:21.198Z,43.60
2018-06-05T00:26:19.788Z,41.70
2018-06-05T00:27:20.824Z,43.50
2018-06-05T00:28:20.011Z,43.50
2018-06-05T00:29:19.858Z,42.20
2018-06-05T00:30:19.918Z,42.20
2018-06-05T00:33:47.291Z,47.80
2018-06-05T00:34:47.267Z,43.30
2018-06-05T00:35:47.346Z,46.20
2018-06-05T00:36:47.324Z,43.70
2018-06-05T00:37:48.352Z,42.20
2018-06-05T00:38:47.341Z,44.00
2018-06-05T00:45:09.747Z,45.90
2018-06-05T00:46:07.974Z,44.70
2018-06-05T00:47:07.859Z,44.40
2018-06-05T00:48:07.871Z,43.80
2018-06-05T00:49:07.857Z,45.80
2018-06-05T00:50:08.894Z,45.80
2018-06-05T00:51:07.985Z,47.80
2018-06-05T00:52:07.899Z,46.30
2018-06-05T00:53:07.901Z,44.00
2018-06-05T00:54:07.943Z,47.50
2018-06-05T00:55:07.911Z,50.90
2018-06-05T00:56:07.948Z,47.30
2018-06-05T00:57:07.948Z,48.90
2018-06-05T00:58:07.966Z,48.60
2018-06-05T00:59:07.986Z,47.40
2018-06-05T01:00:07.990Z,51.10
2018-06-05T01:01:08.005Z,51.70
2018-06-05T01:02:08.034Z,51.40
2018-06-05T01:03:08.033Z,55.60
2018-06-05T01:04:54.808Z,61.30
2018-06-05T01:05:54.772Z,57.10
2018-06-05T01:06:54.788Z,57.50
2018-06-05T01:07:54.807Z,61.30
2018-06-05T01:08:54.872Z,60.40
2018-06-05T01:09:54.833Z,62.50
2018-06-05T01:10:54.844Z,60.20
2018-06-05T01:11:55.855Z,58.00
2018-06-05T01:12:54.854Z,61.00
2018-06-05T01:13:54.905Z,58.20
2018-06-05T01:14:54.902Z,57.60
2018-06-05T01:15:54.911Z,62.30
2018-06-05T01:16:54.937Z,60.00
2018-06-05T01:17:54.925Z,63.50
2018-06-05T01:18:54.934Z,58.30
2018-06-05T01:19:56.968Z,61.20
2018-06-05T01:20:54.974Z,60.30
2018-06-05T01:21:55.020Z,65.50
2018-06-05T01:23:41.804Z,61.80
2018-06-05T01:24:41.799Z,66.80
2018-06-05T01:25:41.779Z,66.80
2018-06-05T01:26:41.792Z,66.50
2018-06-05T01:27:41.817Z,67.80
2018-06-05T01:28:41.852Z,64.80
2018-06-05T01:29:41.810Z,70.10
2018-06-05T01:30:41.855Z,67.60
2018-06-05T01:31:41.854Z,61.30
2018-06-05T01:32:41.866Z,64.00
2018-06-05T01:33:41.880Z,65.10
2018-06-05T01:34:41.884Z,66.40
2018-06-05T01:35:41.905Z,64.00
2018-06-05T01:36:41.917Z,62.40
2018-06-05T01:37:41.935Z,62.40
2018-06-05T01:38:41.954Z,62.70
2018-06-05T01:40:29.095Z,62.80
2018-06-05T01:41:29.171Z,65.60
2018-06-05T01:42:29.110Z,59.60
2018-06-05T01:43:29.139Z,61.20
2018-06-05T01:44:29.138Z,57.00
2018-06-05T01:45:29.186Z,57.40
2018-06-05T01:46:29.149Z,56.30
2018-06-05T01:47:29.151Z,58.30
2018-06-05T01:48:29.146Z,60.60
2018-06-05T01:49:29.221Z,56.20
2018-06-05T01:50:29.183Z,61.40
2018-06-05T01:51:29.201Z,57.10
2018-06-05T01:52:29.217Z,62.70
2018-06-05T01:53:29.235Z,59.00
2018-06-05T01:54:29.237Z,58.40
2018-06-05T01:56:16.469Z,55.30
2018-06-05T01:57:16.406Z,53.20
2018-06-05T01:58:16.406Z,57.90
2018-06-05T01:59:16.431Z,53.40
2018-06-05T02:00:16.496Z,53.60
2018-06-05T02:01:16.426Z,57.00
2018-06-05T02:02:16.474Z,55.00
2018-06-05T02:04:03.533Z,57.50
2018-06-05T02:05:03.539Z,54.40
2018-06-05T02:06:03.556Z,48.00
2018-06-05T02:07:03.584Z,50.80
2018-06-05T02:08:03.568Z,53.20
2018-06-05T02:09:03.574Z,52.00
2018-06-05T02:10:03.601Z,57.00
2018-06-05T02:11:04.606Z,57.30
2018-06-05T02:12:03.605Z,52.70
2018-06-05T02:13:04.652Z,55.00
2018-06-05T02:14:03.638Z,55.90
2018-06-05T02:15:03.649Z,55.30
2018-06-05T02:16:03.687Z,54.00
2018-06-05T02:17:03.701Z,52.80
2018-06-05T02:18:03.748Z,54.40
2018-06-05T02:19:03.710Z,49.70
2018-06-05T02:20:03.754Z,49.40
2018-06-05T02:21:03.738Z,52.60
2018-06-05T02:22:03.734Z,49.90
2018-06-05T02:23:03.755Z,49.10
2018-06-05T02:24:03.753Z,54.10
2018-06-05T02:25:03.777Z,50.00
2018-06-05T02:26:03.789Z,51.50
2018-06-05T02:27:03.797Z,48.60
2018-06-05T02:28:03.804Z,51.20
2018-06-05T02:29:03.848Z,53.10
2018-06-05T02:30:03.837Z,56.20
2018-06-05T02:31:03.866Z,57.50
2018-06-05T02:32:03.851Z,54.70
2018-06-05T02:33:03.868Z,61.90
2018-06-05T02:34:03.887Z,63.90
2018-06-05T02:35:03.901Z,74.60
2018-06-05T02:36:03.939Z,67.60
2018-06-05T02:37:03.941Z,66.70
2018-06-05T02:38:03.956Z,73.90
2018-06-05T02:39:03.997Z,75.80
2018-06-05T02:40:51.172Z,76.10
2018-06-05T02:41:51.135Z,79.80
2018-06-05T02:43:46.264Z,75.20
2018-06-05T02:44:46.230Z,72.50
2018-06-05T02:45:46.230Z,74.50
2018-06-05T02:46:46.277Z,73.60
2018-06-05T02:47:46.261Z,72.90
2018-06-05T02:48:46.282Z,68.80
2018-06-05T02:49:46.278Z,75.70
2018-06-05T02:50:46.318Z,71.10
2018-06-05T02:51:46.325Z,72.10
2018-06-05T02:52:46.347Z,62.60
2018-06-05T02:53:46.338Z,66.60
2018-06-05T02:54:46.356Z,67.80
2018-06-05T02:55:46.377Z,65.20
2018-06-05T02:56:46.384Z,67.90
2018-06-05T02:57:46.382Z,63.80
2018-06-05T02:58:46.413Z,58.20
2018-06-05T02:59:46.414Z,64.60
2018-06-05T03:00:46.451Z,61.50
2018-06-05T03:01:46.431Z,65.60
2018-06-05T03:02:46.455Z,60.00
2018-06-05T03:03:46.464Z,60.50
2018-06-05T03:04:46.487Z,55.20
2018-06-05T03:05:46.504Z,57.70
2018-06-05T03:07:33.660Z,57.70
2018-06-05T03:08:33.700Z,54.10
2018-06-05T03:09:33.625Z,59.90
2018-06-05T03:10:33.632Z,56.90
2018-06-05T03:11:33.716Z,60.10
2018-06-05T03:12:33.658Z,56.10
2018-06-05T03:13:33.807Z,54.30
2018-06-05T03:14:33.695Z,53.40
2018-06-05T03:15:33.686Z,52.50
2018-06-05T03:16:33.706Z,53.70
2018-06-05T03:17:33.744Z,52.60
2018-06-05T03:18:33.743Z,54.50
2018-06-05T03:19:33.798Z,50.90
2018-06-05T03:20:33.763Z,50.40
2018-06-05T03:21:33.789Z,50.70
2018-06-05T03:22:33.800Z,50.30
2018-06-05T03:23:33.802Z,53.70
2018-06-05T03:24:33.812Z,53.50
2018-06-05T03:25:33.829Z,48.50
2018-06-05T03:26:33.854Z,48.30
2018-06-05T03:27:33.855Z,48.80
2018-06-05T03:28:33.880Z,46.40
2018-06-05T03:29:33.876Z,43.60
2018-06-05T03:30:33.912Z,42.50
2018-06-05T03:32:21.020Z,47.00
2018-06-05T03:33:21.005Z,43.20
2018-06-05T03:35:16.486Z,44.20
2018-06-05T03:36:16.376Z,45.30
2018-06-05T03:37:16.397Z,42.50
2018-06-05T03:38:16.401Z,46.30
2018-06-05T03:39:16.400Z,42.90
2018-06-05T03:40:16.425Z,41.60
2018-06-05T03:41:16.477Z,44.30
2018-06-05T03:42:16.441Z,45.10
2018-06-05T03:43:16.461Z,43.80
2018-06-05T03:44:16.482Z,40.70
2018-06-05T03:45:16.485Z,40.60
2018-06-05T03:46:16.493Z,40.40
2018-06-05T03:47:16.506Z,42.30
2018-06-05T03:49:03.261Z,39.20
2018-06-05T03:50:03.294Z,42.50
2018-06-05T03:51:03.264Z,37.50
2018-06-05T03:52:03.282Z,40.40
2018-06-05T03:53:03.299Z,41.00
2018-06-05T03:54:03.287Z,41.80
2018-06-05T03:55:03.329Z,41.60
2018-06-05T03:56:03.363Z,40.10
2018-06-05T03:57:03.369Z,39.90
2018-06-05T03:58:03.356Z,41.70
2018-06-05T03:59:03.362Z,41.50
2018-06-05T04:00:03.382Z,41.20
2018-06-05T04:01:03.467Z,39.50
2018-06-05T04:02:03.405Z,44.60
2018-06-05T04:03:03.412Z,44.00
2018-06-05T04:04:50.396Z,42.50
2018-06-05T04:05:50.333Z,44.60
2018-06-05T04:06:50.368Z,39.10
2018-06-05T04:07:51.371Z,38.90
2018-06-05T04:08:50.382Z,42.10
2018-06-05T04:09:50.412Z,42.40
2018-06-05T04:10:50.404Z,44.70
2018-06-05T04:11:50.541Z,41.30
2018-06-05T04:12:50.421Z,48.80
2018-06-05T04:13:50.443Z,42.90
2018-06-05T04:14:50.440Z,41.20
2018-06-05T04:15:50.470Z,40.70
2018-06-05T04:16:50.471Z,43.00
2018-06-05T04:17:50.479Z,43.20
2018-06-05T04:18:50.491Z,42.40
2018-06-05T04:20:37.519Z,41.00
2018-06-05T04:21:38.501Z,43.80
2018-06-05T04:22:37.537Z,39.80
2018-06-05T04:23:37.682Z,43.20
2018-06-05T04:24:37.548Z,41.60
2018-06-05T04:25:38.563Z,42.90
2018-06-05T04:26:37.584Z,42.10
2018-06-05T04:27:37.640Z,41.30
2018-06-05T04:28:37.585Z,45.00
2018-06-05T04:29:37.614Z,41.70
2018-06-05T04:30:37.616Z,42.40
2018-06-05T04:31:37.625Z,46.50
2018-06-05T04:32:37.637Z,48.10
2018-06-05T04:33:37.655Z,45.60
2018-06-05T04:34:37.669Z,44.70
2018-06-05T04:35:37.695Z,45.00
2018-06-05T04:36:37.728Z,41.60
2018-06-05T04:38:24.751Z,40.00
2018-06-05T04:39:24.696Z,43.60
2018-06-05T04:40:24.680Z,41.60
2018-06-05T04:41:24.706Z,42.50
2018-06-05T04:42:24.738Z,44.20
2018-06-05T04:43:24.787Z,45.20
2018-06-05T04:44:24.816Z,41.80
2018-06-05T04:45:24.756Z,43.00
2018-06-05T04:46:24.757Z,43.20
2018-06-05T04:47:24.776Z,42.30
2018-06-05T04:48:24.787Z,42.50
2018-06-05T04:49:24.810Z,40.40
2018-06-05T04:50:24.826Z,42.00
2018-06-05T04:51:24.859Z,43.10
2018-06-05T04:52:24.823Z,40.20
2018-06-05T04:53:24.891Z,40.30
2018-06-05T04:54:24.876Z,46.70
2018-06-05T04:55:24.895Z,42.20
2018-06-05T04:56:24.891Z,42.20
2018-06-05T04:58:11.878Z,46.50
2018-06-05T04:59:11.805Z,46.70
2018-06-05T05:00:11.806Z,40.30
2018-06-05T05:01:11.807Z,39.50
2018-06-05T05:02:11.813Z,40.70
2018-06-05T05:03:11.839Z,41.50
2018-06-05T05:04:11.841Z,42.00
2018-06-05T05:05:11.908Z,39.80
2018-06-05T05:06:11.902Z,42.80
2018-06-05T05:07:12.047Z,42.90
2018-06-05T05:08:11.883Z,44.40
2018-06-05T05:09:11.919Z,42.90
2018-06-05T05:10:11.922Z,40.90
2018-06-05T05:11:11.933Z,40.40
2018-06-05T05:12:59.112Z,42.60
2018-06-05T05:13:59.037Z,42.40
2018-06-05T05:14:59.027Z,40.80
2018-06-05T05:16:00.022Z,47.30
2018-06-05T05:16:59.052Z,46.50
2018-06-05T05:17:59.069Z,41.60
2018-06-05T05:18:59.118Z,44.00
2018-06-05T05:19:59.080Z,46.20
2018-06-05T05:20:59.092Z,44.80
2018-06-05T05:21:59.131Z,44.80
2018-06-05T05:22:59.123Z,48.80
2018-06-05T05:23:59.113Z,43.20
2018-06-05T05:24:59.166Z,44.80
2018-06-05T05:25:59.159Z,46.60
2018-06-05T05:26:59.171Z,45.60
2018-06-05T05:27:59.224Z,41.90
2018-06-05T05:28:59.202Z,42.30
2018-06-05T05:29:59.320Z,46.50
2018-06-05T05:30:59.238Z,45.10
2018-06-05T05:31:59.219Z,44.40
2018-06-05T05:32:59.227Z,44.20
2018-06-05T05:33:59.247Z,44.80
2018-06-05T05:34:59.277Z,46.40
2018-06-05T05:36:46.430Z,49.40
2018-06-05T05:37:46.543Z,47.00
2018-06-05T05:38:46.373Z,49.40
2018-06-05T05:39:48.439Z,47.70
2018-06-05T05:40:46.465Z,47.80
2018-06-05T05:41:47.443Z,44.90
2018-06-05T05:42:46.436Z,50.20
2018-06-05T05:43:47.470Z,43.30
2018-06-05T05:45:34.746Z,50.00
2018-06-05T05:46:34.643Z,51.20
2018-06-05T05:47:34.657Z,47.10
2018-06-05T05:48:34.699Z,44.70
2018-06-05T05:49:34.652Z,45.10
2018-06-05T05:50:34.667Z,43.60
2018-06-05T05:52:21.589Z,44.40
2018-06-05T05:53:21.573Z,42.50
2018-06-05T05:54:21.567Z,44.60
2018-06-05T05:55:21.622Z,41.00
2018-06-05T05:56:23.572Z,43.60
2018-06-05T05:57:21.576Z,43.00
2018-06-05T06:25:50.359Z,46.70
2018-06-05T06:26:59.762Z,44.40
2018-06-05T06:27:48.430Z,42.20
2018-06-05T06:28:54.353Z,41.60
2018-06-05T06:29:48.457Z,44.10
2018-06-05T06:30:53.342Z,46.50
2018-06-05T06:31:48.502Z,41.20
2018-06-05T06:32:49.539Z,40.30
2018-06-05T06:33:48.507Z,45.30
2018-06-05T06:36:55.646Z,53.80
2018-06-05T06:37:55.608Z,45.00
2018-06-05T06:38:55.741Z,46.20
2018-06-05T06:39:55.672Z,45.40
2018-06-05T06:41:00.319Z,40.20
2018-06-05T06:41:55.648Z,38.60
2018-06-05T06:43:00.326Z,45.50
2018-06-05T06:43:55.682Z,40.70
2018-06-05T06:45:42.601Z,40.60
2018-06-05T06:46:42.641Z,41.20
2018-06-05T06:47:42.604Z,41.40
2018-06-05T06:48:42.673Z,39.20
2018-06-05T06:49:42.711Z,42.30
2018-06-05T06:50:42.670Z,38.20
2018-06-05T06:51:42.619Z,38.60
2018-06-05T06:52:42.670Z,39.70
2018-06-05T06:53:42.648Z,34.50
2018-06-05T06:54:42.726Z,39.50
2018-06-05T06:55:42.667Z,38.90
2018-06-05T06:57:29.597Z,35.90
2018-06-05T06:58:29.642Z,35.40
2018-06-05T06:59:29.551Z,37.70
2018-06-05T07:00:29.618Z,36.90
2018-06-05T07:01:29.589Z,35.20
2018-06-05T07:02:29.625Z,36.70
2018-06-05T07:03:29.648Z,36.70
2018-06-05T07:04:29.691Z,39.20
2018-06-05T07:05:29.658Z,33.30
2018-06-05T07:06:29.647Z,39.60
2018-06-05T07:07:29.634Z,36.30
2018-06-05T07:09:16.570Z,33.70
2018-06-05T07:10:16.533Z,34.20
2018-06-05T07:11:16.533Z,35.20
2018-06-05T07:12:16.581Z,35.90
2018-06-05T07:13:16.566Z,28.70
2018-06-05T07:14:17.560Z,27.80
2018-06-05T07:15:16.601Z,27.40
2018-06-05T07:16:16.640Z,27.70
2018-06-05T07:17:16.592Z,31.00
2018-06-05T07:18:16.626Z,30.20
2018-06-05T07:19:16.610Z,29.30
2018-06-05T07:21:03.818Z,28.30
2018-06-05T07:22:03.781Z,31.80
2018-06-05T07:23:03.816Z,27.10
2018-06-05T07:24:03.884Z,30.50
2018-06-05T07:25:03.843Z,29.20
2018-06-05T07:26:03.823Z,27.20
2018-06-05T07:27:03.904Z,29.00
2018-06-05T07:28:03.901Z,28.30
2018-06-05T07:29:51.221Z,29.50
2018-06-05T07:30:51.275Z,29.10
2018-06-05T07:31:51.023Z,29.90
2018-06-05T07:32:51.050Z,27.90
2018-06-05T07:33:51.023Z,30.90
2018-06-05T07:34:51.075Z,30.90
2018-06-05T07:35:51.109Z,30.20
2018-06-05T07:36:51.112Z,31.00
2018-06-05T07:37:51.119Z,28.00
2018-06-05T07:38:51.168Z,32.70
2018-06-05T07:39:51.117Z,30.00
2018-06-05T07:40:51.426Z,29.80
2018-06-05T07:41:51.147Z,30.60
2018-06-05T07:43:38.697Z,30.70
2018-06-05T07:44:38.725Z,33.70
2018-06-05T07:45:38.631Z,33.20
2018-06-05T07:46:38.631Z,33.60
2018-06-05T07:47:38.636Z,32.70
2018-06-05T07:48:38.753Z,29.60
2018-06-05T07:49:38.641Z,31.60
2018-06-05T07:50:39.724Z,33.50
2018-06-05T07:51:38.683Z,32.80
2018-06-05T07:52:38.770Z,32.70
2018-06-05T07:53:38.704Z,35.00
2018-06-05T07:54:38.772Z,35.30
2018-06-05T07:55:38.721Z,36.10
2018-06-05T07:56:38.820Z,32.00
2018-06-05T07:58:25.850Z,34.00
2018-06-05T07:59:25.777Z,32.30
2018-06-05T08:00:25.773Z,32.60
2018-06-05T08:01:26.945Z,30.90
2018-06-05T08:02:25.767Z,32.30
2018-06-05T08:03:25.827Z,29.00
2018-06-05T08:04:25.825Z,30.50
2018-06-05T08:05:25.854Z,33.00
2018-06-05T08:06:25.823Z,31.60
2018-06-05T08:08:13.318Z,32.60
2018-06-05T08:09:12.925Z,29.90
2018-06-05T08:10:12.959Z,33.40
2018-06-05T08:11:12.977Z,32.90
2018-06-05T08:12:13.039Z,33.50
2018-06-05T08:13:14.021Z,38.60
2018-06-05T08:14:12.951Z,37.70
2018-06-05T08:15:12.983Z,38.80
2018-06-05T08:17:00.053Z,37.80
2018-06-05T08:18:00.016Z,44.30
2018-06-05T08:19:00.030Z,41.70
2018-06-05T08:20:00.066Z,40.70
2018-06-05T08:21:00.046Z,42.20
2018-06-05T08:22:00.127Z,41.90
2018-06-05T08:23:00.102Z,44.00
2018-06-05T08:24:00.215Z,43.70
2018-06-05T08:25:00.119Z,38.80
2018-06-05T08:26:00.115Z,39.60
2018-06-05T08:27:00.140Z,42.70
2018-06-05T08:28:01.150Z,44.70
2018-06-05T08:29:47.581Z,42.30
2018-06-05T08:30:47.483Z,44.90
2018-06-05T08:32:42.739Z,39.50
2018-06-05T08:33:42.660Z,46.30
2018-06-05T08:34:42.691Z,46.20
2018-06-05T08:35:42.704Z,49.80
2018-06-05T08:36:42.721Z,44.40
2018-06-05T08:37:42.788Z,47.40
2018-06-05T08:38:42.714Z,45.20
2018-06-05T08:39:42.730Z,47.50
2018-06-05T08:40:42.761Z,48.00
2018-06-05T08:41:42.751Z,47.10
2018-06-05T08:42:42.807Z,44.90
2018-06-05T08:43:42.779Z,49.00
2018-06-05T08:44:43.836Z,51.00
2018-06-05T08:45:42.799Z,43.60
2018-06-05T08:46:42.832Z,44.20
2018-06-05T08:48:39.196Z,46.80
2018-06-05T08:49:40.244Z,45.60
2018-06-05T08:50:39.201Z,40.80
2018-06-05T08:51:39.183Z,42.50
2018-06-05T08:52:39.259Z,38.30
2018-06-05T08:53:39.321Z,39.50
2018-06-05T08:54:39.240Z,38.10
2018-06-05T08:55:40.332Z,35.10
2018-06-05T08:56:39.264Z,39.40
2018-06-05T08:58:28.556Z,40.80
2018-06-05T08:59:28.578Z,38.80
2018-06-05T09:01:24.042Z,39.70
2018-06-05T09:02:23.938Z,39.60
2018-06-05T09:03:23.948Z,42.20
2018-06-05T09:04:24.157Z,41.40
2018-06-05T09:05:24.152Z,42.10
2018-06-05T09:06:24.041Z,41.70
2018-06-05T09:07:23.979Z,42.50
2018-06-05T09:08:26.071Z,41.30
2018-06-05T09:10:10.960Z,43.00
2018-06-05T09:11:10.836Z,43.30
2018-06-05T09:12:11.876Z,36.80
2018-06-05T09:13:10.829Z,36.40
2018-06-05T09:14:10.900Z,38.90
2018-06-05T09:15:10.874Z,39.60
2018-06-05T09:16:11.899Z,39.10
2018-06-05T09:17:10.842Z,45.60
2018-06-05T09:18:10.889Z,42.80
2018-06-05T09:19:10.857Z,41.50
2018-06-05T09:20:10.864Z,41.50
2018-06-05T09:21:10.897Z,44.00
2018-06-05T09:22:10.900Z,46.10
2018-06-05T09:23:10.910Z,43.30
2018-06-05T09:24:58.518Z,44.80
2018-06-05T09:25:58.550Z,44.80
2018-06-05T09:26:58.554Z,47.70
2018-06-05T09:27:58.582Z,46.50
2018-06-05T09:28:58.543Z,44.00
2018-06-05T09:29:58.522Z,48.00
2018-06-05T09:30:58.573Z,43.80
2018-06-05T09:31:58.563Z,48.90
2018-06-05T09:33:00.647Z,44.10
2018-06-05T09:33:58.595Z,49.20
2018-06-05T09:34:58.656Z,46.80
2018-06-05T09:36:20.835Z,50.10
2018-06-05T09:37:20.462Z,50.00
2018-06-05T09:38:20.562Z,47.30
2018-06-05T09:39:20.495Z,46.30
2018-06-05T09:40:20.487Z,41.90
2018-06-05T09:41:20.614Z,42.80
2018-06-05T09:42:20.519Z,49.80
2018-06-05T09:43:20.618Z,46.70
2018-06-05T09:44:20.569Z,46.30
2018-06-05T09:45:20.639Z,46.10
2018-06-05T09:46:20.593Z,46.10
2018-06-05T09:47:20.610Z,45.70
2018-06-05T09:48:20.614Z,47.40
2018-06-05T09:49:20.761Z,44.20
2018-06-05T09:50:20.700Z,47.80
2018-06-05T09:51:20.634Z,50.10
2018-06-05T09:52:20.799Z,49.90
2018-06-05T09:53:20.697Z,50.90
2018-06-05T09:54:20.768Z,48.60
2018-06-05T09:55:20.672Z,51.60
2018-06-05T09:56:20.797Z,52.70
2018-06-05T09:57:20.713Z,52.50
2018-06-05T09:59:10.363Z,55.20
2018-06-05T10:00:11.395Z,52.70
2018-06-05T10:01:10.322Z,53.00
2018-06-05T10:02:11.460Z,50.70
2018-06-05T10:03:10.386Z,52.80
2018-06-05T10:04:10.580Z,53.60
2018-06-05T10:05:10.377Z,51.60
2018-06-05T10:06:10.404Z,53.80
2018-06-05T10:07:10.371Z,49.30
2018-06-05T10:08:10.475Z,46.20
2018-06-05T10:09:10.419Z,53.00
2018-06-05T10:10:10.531Z,51.30
2018-06-05T10:11:10.428Z,46.40
2018-06-05T10:12:10.539Z,52.20
2018-06-05T10:13:10.444Z,49.20
2018-06-05T10:15:02.201Z,48.60
2018-06-05T10:16:02.328Z,48.60
2018-06-05T10:17:02.193Z,49.20
2018-06-05T10:18:02.183Z,51.80
2018-06-05T10:19:02.133Z,50.60
2018-06-05T10:20:02.341Z,52.00
2018-06-05T10:21:02.118Z,49.70
2018-06-05T10:22:06.779Z,50.20
2018-06-05T10:23:02.142Z,52.40
2018-06-05T10:24:02.214Z,52.00
2018-06-05T10:25:02.175Z,50.90
2018-06-05T10:26:02.175Z,53.40
2018-06-05T10:27:02.191Z,53.80
2018-06-05T10:28:02.319Z,51.80
2018-06-05T10:29:02.210Z,53.50
2018-06-05T10:30:02.342Z,47.20
2018-06-05T10:31:02.245Z,46.70
2018-06-05T10:32:49.395Z,48.20
2018-06-05T10:33:51.504Z,49.10
2018-06-05T10:34:49.474Z,49.60
2018-06-05T10:35:50.477Z,50.00
2018-06-05T10:36:49.414Z,47.90
2018-06-05T10:37:49.444Z,47.30
2018-06-05T10:38:49.444Z,51.90
2018-06-05T10:39:49.544Z,52.30
2018-06-05T10:40:49.499Z,59.80
2018-06-05T10:41:49.519Z,48.90
2018-06-05T10:42:49.475Z,46.00
2018-06-05T10:43:49.525Z,44.10
2018-06-05T10:44:49.512Z,44.40
2018-06-05T10:46:36.799Z,45.90
2018-06-05T10:47:36.799Z,45.50
2018-06-05T10:48:36.800Z,46.60
2018-06-05T10:49:36.805Z,46.00
2018-06-05T10:50:36.840Z,44.70
2018-06-05T10:51:37.936Z,43.60
2018-06-05T10:52:36.845Z,39.10
2018-06-05T10:53:37.931Z,42.00
2018-06-05T10:54:36.857Z,43.80
2018-06-05T10:55:36.907Z,45.30
2018-06-05T10:56:36.885Z,41.50
2018-06-05T10:57:36.909Z,42.20
2018-06-05T10:58:36.927Z,44.50
2018-06-05T10:59:37.025Z,41.70
2018-06-05T11:01:27.157Z,42.30
2018-06-05T11:02:23.916Z,44.10
2018-06-05T11:03:25.007Z,41.10
2018-06-05T11:04:23.922Z,41.10
2018-06-05T11:05:23.976Z,40.80
2018-06-05T11:06:24.033Z,39.30
2018-06-05T11:07:25.011Z,40.80
2018-06-05T11:09:12.143Z,40.10
2018-06-05T11:10:10.851Z,38.90
2018-06-05T11:11:10.912Z,42.00
2018-06-05T11:12:10.850Z,39.00
2018-06-05T11:13:15.732Z,40.30
2018-06-05T11:14:10.876Z,35.90
2018-06-05T11:15:11.940Z,40.70
2018-06-05T11:16:10.931Z,46.70
2018-06-05T11:17:11.117Z,41.90
2018-06-05T11:18:11.024Z,39.30
2018-06-05T11:20:01.245Z,35.80
2018-06-05T11:21:01.246Z,39.90
2018-06-05T11:22:01.209Z,37.00
2018-06-05T11:23:02.404Z,38.60
2018-06-05T11:24:01.514Z,36.70
2018-06-05T11:25:01.440Z,44.20
2018-06-05T11:26:01.283Z,43.00
2018-06-05T11:27:01.240Z,39.80
2018-06-05T11:28:48.094Z,44.20
2018-06-05T11:29:48.170Z,42.00
2018-06-05T11:30:48.203Z,40.90
2018-06-05T11:31:49.229Z,46.60
2018-06-05T11:32:48.071Z,41.50
2018-06-05T11:33:48.129Z,46.70
2018-06-05T11:35:35.441Z,50.00
2018-06-05T11:36:35.387Z,48.20
2018-06-05T11:37:35.376Z,43.90
2018-06-05T11:38:35.465Z,42.60
2018-06-05T11:39:35.480Z,37.60
2018-06-05T11:40:35.403Z,41.40
2018-06-05T11:41:35.432Z,42.00
2018-06-05T11:43:26.886Z,44.00
2018-06-05T11:44:28.107Z,43.60
2018-06-05T11:45:26.992Z,39.80
2018-06-05T11:46:26.920Z,40.90
2018-06-05T11:47:26.865Z,42.50
2018-06-05T11:49:15.212Z,40.90
2018-06-05T11:50:16.171Z,40.40
2018-06-05T11:51:15.103Z,37.30
2018-06-05T11:52:15.184Z,35.90
2018-06-05T11:53:15.101Z,36.10
2018-06-05T11:54:15.136Z,34.80
2018-06-05T11:56:07.373Z,37.60
2018-06-05T11:57:07.227Z,36.60
2018-06-05T11:59:02.528Z,37.80
2018-06-05T12:00:02.437Z,34.90
2018-06-05T12:01:02.469Z,34.20
2018-06-05T12:02:02.531Z,46.50
2018-06-05T12:03:02.509Z,34.30
2018-06-05T12:04:03.557Z,38.50
2018-06-05T12:05:02.504Z,37.70
2018-06-05T12:06:02.588Z,35.10
2018-06-05T12:07:02.547Z,32.60
2018-06-05T12:08:02.569Z,35.50
2018-06-05T12:09:02.616Z,32.60
2018-06-05T12:10:02.622Z,36.60
2018-06-05T12:11:02.621Z,35.80
2018-06-05T12:12:50.595Z,43.10
2018-06-05T12:13:49.526Z,38.90
2018-06-05T12:14:49.553Z,36.50
2018-06-05T12:15:49.537Z,34.40
2018-06-05T12:16:49.526Z,32.90
2018-06-05T12:17:49.433Z,33.70
2018-06-05T12:18:49.440Z,32.20
2018-06-05T12:19:49.465Z,31.20
2018-06-05T12:20:49.619Z,35.50
2018-06-05T12:21:49.471Z,34.60
2018-06-05T12:22:49.502Z,33.90
2018-06-05T12:23:49.474Z,33.60
2018-06-05T12:24:49.503Z,32.60
2018-06-05T12:25:49.526Z,32.90
2018-06-05T12:27:37.499Z,30.30
2018-06-05T12:28:37.449Z,34.60
2018-06-05T12:29:37.549Z,32.80
2018-06-05T12:30:37.543Z,27.20
2018-06-05T12:31:37.561Z,28.90
2018-06-05T12:32:37.497Z,31.00
2018-06-05T12:33:37.495Z,30.60
2018-06-05T12:34:37.524Z,31.10
2018-06-05T12:36:25.856Z,31.70
2018-06-05T12:37:25.825Z,30.30
2018-06-05T12:38:25.792Z,31.90
2018-06-05T12:39:26.826Z,30.30
2018-06-05T12:40:25.780Z,31.10
2018-06-05T12:41:25.838Z,28.80
2018-06-05T12:43:13.020Z,26.10
2018-06-05T12:44:13.052Z,27.30
2018-06-05T12:45:13.025Z,29.80
2018-06-05T12:46:13.054Z,28.30
2018-06-05T12:47:13.133Z,29.60
2018-06-05T12:48:13.064Z,28.10
2018-06-05T12:49:13.023Z,28.70
2018-06-05T12:50:13.078Z,26.60
2018-06-05T12:51:13.049Z,29.10
2018-06-05T12:52:13.092Z,28.00
2018-06-05T12:53:13.067Z,30.00
2018-06-05T12:54:13.112Z,28.80
2018-06-05T12:55:13.106Z,33.70
2018-06-05T12:56:13.236Z,29.80
2018-06-05T12:58:00.101Z,25.60
2018-06-05T12:59:00.075Z,26.50
2018-06-05T13:00:00.255Z,29.80
2018-06-05T13:01:00.106Z,30.60
2018-06-05T13:02:00.145Z,34.10
2018-06-05T13:03:00.324Z,32.80
2018-06-05T13:04:47.438Z,29.10
2018-06-05T13:05:47.458Z,27.40
2018-06-05T13:06:47.438Z,26.30
2018-06-05T13:07:47.462Z,27.50
2018-06-05T13:08:47.458Z,31.80
2018-06-05T13:09:48.550Z,29.30
2018-06-05T13:10:47.508Z,28.80
2018-06-05T13:12:34.355Z,28.30
2018-06-05T13:13:34.469Z,32.70
2018-06-05T13:14:34.356Z,29.30
2018-06-05T13:15:34.507Z,33.50
2018-06-05T13:16:34.399Z,37.40
2018-06-05T13:17:34.490Z,28.40
2018-06-05T13:19:21.654Z,29.60
2018-06-05T13:20:21.354Z,28.70
2018-06-05T13:21:21.480Z,30.90
2018-06-05T13:22:21.437Z,28.10
2018-06-05T13:23:21.513Z,28.90
2018-06-05T13:24:22.475Z,32.90
2018-06-05T13:25:21.464Z,29.10
2018-06-05T13:26:21.624Z,28.00
2018-06-05T13:28:09.675Z,28.30
2018-06-05T13:29:08.419Z,35.00
2018-06-05T13:30:08.541Z,31.90
2018-06-05T13:31:08.568Z,32.20
2018-06-05T13:32:08.408Z,34.00
2018-06-05T13:33:08.442Z,32.70
2018-06-05T13:34:08.342Z,34.20
2018-06-05T13:35:55.591Z,36.40
2018-06-05T13:36:55.688Z,33.60
2018-06-05T13:37:55.664Z,32.50
2018-06-05T13:38:55.582Z,36.20
2018-06-05T13:39:55.592Z,34.70
2018-06-05T13:40:55.750Z,34.60
2018-06-05T13:42:52.262Z,38.20
2018-06-05T13:43:52.316Z,34.90
2018-06-05T13:44:52.347Z,31.80
2018-06-05T13:45:52.509Z,33.90
2018-06-05T13:46:52.300Z,35.70
2018-06-05T13:47:52.310Z,32.50
2018-06-05T13:48:52.344Z,33.20
2018-06-05T13:49:43.998Z,34.30
2018-06-05T13:50:44.013Z,31.70
2018-06-05T13:51:43.984Z,36.50
2018-06-05T13:52:45.128Z,33.50
2018-06-05T13:53:44.009Z,36.70
2018-06-05T13:54:44.031Z,38.30
2018-06-05T13:55:44.022Z,36.20
2018-06-05T13:56:50.115Z,34.60
2018-06-05T13:58:33.468Z,37.10
2018-06-05T13:59:32.430Z,35.70
2018-06-05T14:00:32.500Z,35.10
2018-06-05T14:01:32.369Z,34.10
2018-06-05T14:02:33.544Z,38.50
2018-06-05T14:04:19.781Z,35.70
2018-06-05T14:05:19.757Z,32.60
2018-06-05T14:06:19.681Z,34.50
2018-06-05T14:07:19.749Z,35.20
2018-06-05T14:08:19.723Z,38.70
2018-06-05T14:10:08.246Z,43.40
2018-06-05T14:11:08.048Z,40.60
2018-06-05T14:12:07.887Z,33.90
2018-06-05T14:13:07.920Z,36.10
2018-06-05T14:14:07.886Z,37.50
2018-06-05T14:15:07.885Z,35.40
2018-06-05T14:16:07.905Z,37.10
2018-06-05T14:17:55.028Z,36.40
2018-06-05T14:18:54.882Z,32.80
2018-06-05T14:19:54.891Z,33.00
2018-06-05T14:20:57.052Z,32.10
2018-06-05T14:21:55.048Z,32.80
2018-06-05T14:22:54.985Z,29.90
2018-06-05T14:24:41.957Z,32.90
2018-06-05T14:25:41.893Z,33.80
2018-06-05T14:26:41.922Z,33.20
2018-06-05T14:27:42.093Z,31.80